sensor_id;sensor_type;location;lat;lon;timestamp;pressure;altitude;pressure_sealevel;temperature;humidity
24610;BME280;12758;47.890;11.694;2023-03-25T00:01:21;93342.66;;;8.99;100.00
24610;BME280;12758;47.890;11.694;2023-03-25T00:03:50;93348.59;;;8.71;100.00
24610;BME280;12758;47.890;11.694;2023-03-25T00:06:18;93348.88;;;8.78;100.00
24610;BME280;12758;47.890;11.694;2023-03-25T00:08:44;93348.47;;;8.68;100.00
24610;BME280;12758;47.890;11.694;2023-03-25T00:11:10;93354.22;;;9.08;100.00
24610;BME280;12758;47.890;11.694;2023-03-25T00:13:36;93348.97;;;9.45;100.00
24610;BME280;12758;47.890;11.694;2023-03-25T00:16:04;93351.81;;;9.27;100.00
24610;BME280;12758;47.890;11.694;2023-03-25T00:18:31;93342.81;;;8.81;100.00
24610;BME280;12758;47.890;11.694;2023-03-25T00:20:58;93340.31;;;9.51;100.00
24610;BME280;12758;47.890;11.694;2023-03-25T00:23:25;93350.59;;;9.58;100.00
24610;BME280;12758;47.890;11.694;2023-03-25T00:25:51;93328.94;;;9.25;100.00
24610;BME280;12758;47.890;11.694;2023-03-25T00:28:18;93335.88;;;9.47;100.00
24610;BME280;12758;47.890;11.694;2023-03-25T00:30:44;93323.34;;;9.42;100.00
24610;BME280;12758;47.890;11.694;2023-03-25T00:33:10;93332.78;;;9.03;100.00
24610;BME280;12758;47.890;11.694;2023-03-25T00:35:38;93328.31;;;8.86;100.00
24610;BME280;12758;47.890;11.694;2023-03-25T00:38:09;93322.88;;;8.65;100.00
24610;BME280;12758;47.890;11.694;2023-03-25T00:40:35;93330.34;;;8.38;100.00
24610;BME280;12758;47.890;11.694;2023-03-25T00:43:02;93329.97;;;8.49;100.00
24610;BME280;12758;47.890;11.694;2023-03-25T00:45:29;93318.38;;;8.69;100.00
24610;BME280;12758;47.890;11.694;2023-03-25T00:47:56;93317.28;;;8.40;100.00
24610;BME280;12758;47.890;11.694;2023-03-25T00:50:23;93317.09;;;8.46;100.00
24610;BME280;12758;47.890;11.694;2023-03-25T00:52:49;93316.13;;;8.12;100.00
24610;BME280;12758;47.890;11.694;2023-03-25T00:55:16;93318.63;;;8.55;100.00
24610;BME280;12758;47.890;11.694;2023-03-25T00:57:42;93305.25;;;8.00;100.00
24610;BME280;12758;47.890;11.694;2023-03-25T01:00:11;93314.00;;;7.97;100.00
24610;BME280;12758;47.890;11.694;2023-03-25T01:02:37;93322.41;;;8.33;100.00
24610;BME280;12758;47.890;11.694;2023-03-25T01:05:04;93316.94;;;7.74;100.00
24610;BME280;12758;47.890;11.694;2023-03-25T01:07:31;93321.84;;;8.19;100.00
24610;BME280;12758;47.890;11.694;2023-03-25T01:09:57;93320.41;;;7.83;100.00
24610;BME280;12758;47.890;11.694;2023-03-25T01:12:24;93321.41;;;7.70;100.00
24610;BME280;12758;47.890;11.694;2023-03-25T01:14:50;93326.28;;;8.15;100.00
24610;BME280;12758;47.890;11.694;2023-03-25T01:17:17;93319.19;;;7.72;100.00
24610;BME280;12758;47.890;11.694;2023-03-25T01:19:43;93316.72;;;7.97;100.00
24610;BME280;12758;47.890;11.694;2023-03-25T01:22:09;93314.56;;;8.11;100.00
24610;BME280;12758;47.890;11.694;2023-03-25T01:24:36;93318.63;;;8.26;100.00
24610;BME280;12758;47.890;11.694;2023-03-25T01:27:03;93318.19;;;8.15;100.00
24610;BME280;12758;47.890;11.694;2023-03-25T01:29:29;93319.28;;;8.52;100.00
24610;BME280;12758;47.890;11.694;2023-03-25T01:31:55;93327.81;;;8.33;100.00
24610;BME280;12758;47.890;11.694;2023-03-25T01:34:21;93315.31;;;8.50;100.00
24610;BME280;12758;47.890;11.694;2023-03-25T01:36:48;93312.84;;;8.06;100.00
24610;BME280;12758;47.890;11.694;2023-03-25T01:39:15;93310.38;;;8.22;100.00
24610;BME280;12758;47.890;11.694;2023-03-25T01:41:45;93309.81;;;8.08;100.00
24610;BME280;12758;47.890;11.694;2023-03-25T01:47:12;93316.44;;;7.81;100.00
24610;BME280;12758;47.890;11.694;2023-03-25T01:49:39;93325.56;;;7.59;100.00
24610;BME280;12758;47.890;11.694;2023-03-25T01:52:11;93294.38;;;7.70;100.00
24610;BME280;12758;47.890;11.694;2023-03-25T01:54:39;93311.94;;;7.46;100.00
24610;BME280;12758;47.890;11.694;2023-03-25T01:57:06;93318.75;;;7.61;100.00
24610;BME280;12758;47.890;11.694;2023-03-25T01:59:33;93314.63;;;7.46;100.00
24610;BME280;12758;47.890;11.694;2023-03-25T02:02:00;93314.13;;;7.62;100.00
24610;BME280;12758;47.890;11.694;2023-03-25T02:04:31;93299.78;;;7.70;100.00
24610;BME280;12758;47.890;11.694;2023-03-25T02:07:04;93295.47;;;7.78;100.00
24610;BME280;12758;47.890;11.694;2023-03-25T02:09:33;93298.22;;;7.69;100.00
24610;BME280;12758;47.890;11.694;2023-03-25T02:11:59;93304.22;;;7.83;100.00
24610;BME280;12758;47.890;11.694;2023-03-25T02:14:27;93306.78;;;7.71;100.00
24610;BME280;12758;47.890;11.694;2023-03-25T02:16:59;93307.09;;;7.69;100.00
24610;BME280;12758;47.890;11.694;2023-03-25T02:19:47;93303.66;;;7.99;100.00
24610;BME280;12758;47.890;11.694;2023-03-25T02:22:30;93293.09;;;7.76;100.00
24610;BME280;12758;47.890;11.694;2023-03-25T02:25:31;93290.69;;;7.83;100.00
24610;BME280;12758;47.890;11.694;2023-03-25T02:28:02;93287.31;;;7.86;100.00
24610;BME280;12758;47.890;11.694;2023-03-25T02:30:42;93280.72;;;8.05;100.00
24610;BME280;12758;47.890;11.694;2023-03-25T02:33:30;93286.47;;;8.03;100.00
24610;BME280;12758;47.890;11.694;2023-03-25T02:36:11;93287.75;;;8.06;100.00
24610;BME280;12758;47.890;11.694;2023-03-25T02:38:45;93279.19;;;7.57;100.00
24610;BME280;12758;47.890;11.694;2023-03-25T02:41:16;93275.81;;;7.68;100.00
24610;BME280;12758;47.890;11.694;2023-03-25T02:43:50;93272.44;;;7.80;100.00
24610;BME280;12758;47.890;11.694;2023-03-25T02:46:18;93282.00;;;7.69;100.00
24610;BME280;12758;47.890;11.694;2023-03-25T02:48:49;93274.19;;;7.76;100.00
24610;BME280;12758;47.890;11.694;2023-03-25T02:51:20;93284.53;;;7.74;100.00
24610;BME280;12758;47.890;11.694;2023-03-25T02:53:48;93287.13;;;7.62;100.00
24610;BME280;12758;47.890;11.694;2023-03-25T02:56:16;93282.09;;;7.52;100.00
24610;BME280;12758;47.890;11.694;2023-03-25T02:58:46;93295.69;;;7.64;100.00
24610;BME280;12758;47.890;11.694;2023-03-25T03:01:14;93288.56;;;7.59;100.00
24610;BME280;12758;47.890;11.694;2023-03-25T03:03:40;93286.84;;;7.93;100.00
24610;BME280;12758;47.890;11.694;2023-03-25T03:06:07;93286.63;;;7.68;100.00
24610;BME280;12758;47.890;11.694;2023-03-25T03:11:30;93295.34;;;7.74;100.00
24610;BME280;12758;47.890;11.694;2023-03-25T03:14:04;93274.00;;;7.34;100.00
24610;BME280;12758;47.890;11.694;2023-03-25T03:16:39;93280.47;;;7.51;100.00
24610;BME280;12758;47.890;11.694;2023-03-25T03:19:16;93279.09;;;7.36;100.00
24610;BME280;12758;47.890;11.694;2023-03-25T03:21:51;93280.78;;;7.58;100.00
24610;BME280;12758;47.890;11.694;2023-03-25T03:24:23;93286.06;;;8.22;100.00
24610;BME280;12758;47.890;11.694;2023-03-25T03:26:52;93281.88;;;7.57;100.00
24610;BME280;12758;47.890;11.694;2023-03-25T03:29:23;93285.88;;;7.51;100.00
24610;BME280;12758;47.890;11.694;2023-03-25T03:31:52;93284.34;;;7.32;100.00
24610;BME280;12758;47.890;11.694;2023-03-25T03:34:23;93287.41;;;7.69;100.00
24610;BME280;12758;47.890;11.694;2023-03-25T03:36:52;93281.47;;;7.37;100.00
24610;BME280;12758;47.890;11.694;2023-03-25T03:39:22;93293.41;;;7.28;100.00
24610;BME280;12758;47.890;11.694;2023-03-25T03:41:51;93290.84;;;7.31;100.00
24610;BME280;12758;47.890;11.694;2023-03-25T03:44:19;93297.31;;;7.47;100.00
24610;BME280;12758;47.890;11.694;2023-03-25T03:46:50;93303.28;;;7.15;100.00
24610;BME280;12758;47.890;11.694;2023-03-25T03:49:20;93302.47;;;7.23;100.00
24610;BME280;12758;47.890;11.694;2023-03-25T03:51:48;93295.44;;;7.39;100.00
24610;BME280;12758;47.890;11.694;2023-03-25T03:54:18;93304.50;;;7.35;100.00
24610;BME280;12758;47.890;11.694;2023-03-25T03:56:49;93306.84;;;7.54;100.00
24610;BME280;12758;47.890;11.694;2023-03-25T03:59:20;93328.25;;;7.67;100.00
24610;BME280;12758;47.890;11.694;2023-03-25T04:01:50;93306.66;;;7.59;100.00
24610;BME280;12758;47.890;11.694;2023-03-25T04:04:19;93316.00;;;7.70;100.00
24610;BME280;12758;47.890;11.694;2023-03-25T04:06:50;93315.06;;;7.66;100.00
24610;BME280;12758;47.890;11.694;2023-03-25T04:09:22;93318.41;;;7.63;100.00
24610;BME280;12758;47.890;11.694;2023-03-25T04:11:53;93299.69;;;7.58;100.00
24610;BME280;12758;47.890;11.694;2023-03-25T04:14:20;93314.53;;;7.17;100.00
24610;BME280;12758;47.890;11.694;2023-03-25T04:16:46;93302.44;;;7.40;100.00
24610;BME280;12758;47.890;11.694;2023-03-25T04:19:12;93315.97;;;7.23;100.00
24610;BME280;12758;47.890;11.694;2023-03-25T04:21:42;93321.16;;;7.45;100.00
24610;BME280;12758;47.890;11.694;2023-03-25T04:24:09;93315.47;;;7.38;100.00
24610;BME280;12758;47.890;11.694;2023-03-25T04:26:36;93324.38;;;7.30;100.00
24610;BME280;12758;47.890;11.694;2023-03-25T04:29:03;93311.72;;;7.60;100.00
24610;BME280;12758;47.890;11.694;2023-03-25T04:31:30;93322.63;;;7.26;100.00
24610;BME280;12758;47.890;11.694;2023-03-25T04:33:56;93323.59;;;7.12;100.00
24610;BME280;12758;47.890;11.694;2023-03-25T04:36:22;93330.44;;;6.92;100.00
24610;BME280;12758;47.890;11.694;2023-03-25T04:38:48;93332.66;;;6.99;100.00
24610;BME280;12758;47.890;11.694;2023-03-25T04:41:14;93349.00;;;6.94;100.00
24610;BME280;12758;47.890;11.694;2023-03-25T04:43:41;93343.63;;;6.94;100.00
24610;BME280;12758;47.890;11.694;2023-03-25T04:46:11;93348.84;;;7.08;100.00
24610;BME280;12758;47.890;11.694;2023-03-25T04:48:38;93349.94;;;7.24;100.00
24610;BME280;12758;47.890;11.694;2023-03-25T04:51:06;93339.63;;;7.09;100.00
24610;BME280;12758;47.890;11.694;2023-03-25T04:53:35;93362.19;;;7.13;100.00
24610;BME280;12758;47.890;11.694;2023-03-25T04:56:01;93345.66;;;7.23;100.00
24610;BME280;12758;47.890;11.694;2023-03-25T04:58:29;93345.66;;;7.23;100.00
24610;BME280;12758;47.890;11.694;2023-03-25T05:00:55;93340.59;;;7.13;100.00
24610;BME280;12758;47.890;11.694;2023-03-25T05:03:22;93330.06;;;7.37;100.00
24610;BME280;12758;47.890;11.694;2023-03-25T05:05:48;93325.94;;;7.49;100.00
24610;BME280;12758;47.890;11.694;2023-03-25T05:08:15;93330.44;;;6.75;100.00
24610;BME280;12758;47.890;11.694;2023-03-25T05:10:41;93334.72;;;7.11;100.00
24610;BME280;12758;47.890;11.694;2023-03-25T05:13:07;93324.41;;;7.13;100.00
24610;BME280;12758;47.890;11.694;2023-03-25T05:15:35;93330.03;;;7.55;100.00
24610;BME280;12758;47.890;11.694;2023-03-25T05:18:05;93334.56;;;6.98;100.00
24610;BME280;12758;47.890;11.694;2023-03-25T05:20:35;93331.06;;;6.72;100.00
24610;BME280;12758;47.890;11.694;2023-03-25T05:23:02;93339.00;;;6.77;100.00
24610;BME280;12758;47.890;11.694;2023-03-25T05:25:29;93335.00;;;7.09;100.00
24610;BME280;12758;47.890;11.694;2023-03-25T05:27:58;93337.88;;;7.30;100.00
24610;BME280;12758;47.890;11.694;2023-03-25T05:30:26;93351.34;;;7.30;100.00
24610;BME280;12758;47.890;11.694;2023-03-25T05:32:57;93347.88;;;7.21;100.00
24610;BME280;12758;47.890;11.694;2023-03-25T05:35:24;93341.34;;;7.39;100.00
24610;BME280;12758;47.890;11.694;2023-03-25T05:37:51;93340.91;;;7.03;100.00
24610;BME280;12758;47.890;11.694;2023-03-25T05:40:17;93319.44;;;7.32;100.00
24610;BME280;12758;47.890;11.694;2023-03-25T05:42:43;93347.09;;;6.94;100.00
24610;BME280;12758;47.890;11.694;2023-03-25T05:45:13;93339.59;;;7.43;100.00
24610;BME280;12758;47.890;11.694;2023-03-25T05:47:40;93348.03;;;7.24;100.00
24610;BME280;12758;47.890;11.694;2023-03-25T05:50:07;93357.69;;;7.34;100.00
24610;BME280;12758;47.890;11.694;2023-03-25T05:52:35;93385.31;;;7.31;100.00
24610;BME280;12758;47.890;11.694;2023-03-25T05:55:02;93365.34;;;7.32;100.00
24610;BME280;12758;47.890;11.694;2023-03-25T05:57:29;93368.84;;;7.07;100.00
24610;BME280;12758;47.890;11.694;2023-03-25T05:59:55;93375.81;;;7.08;100.00
24610;BME280;12758;47.890;11.694;2023-03-25T06:02:21;93352.94;;;7.31;100.00
24610;BME280;12758;47.890;11.694;2023-03-25T06:04:48;93346.28;;;7.20;100.00
24610;BME280;12758;47.890;11.694;2023-03-25T06:07:15;93369.31;;;7.17;100.00
24610;BME280;12758;47.890;11.694;2023-03-25T06:09:44;93392.31;;;7.15;100.00
24610;BME280;12758;47.890;11.694;2023-03-25T06:12:12;93390.91;;;7.17;100.00
24610;BME280;12758;47.890;11.694;2023-03-25T06:14:38;93378.66;;;7.37;100.00
24610;BME280;12758;47.890;11.694;2023-03-25T06:17:08;93392.50;;;7.36;100.00
24610;BME280;12758;47.890;11.694;2023-03-25T06:19:34;93396.13;;;7.31;100.00
24610;BME280;12758;47.890;11.694;2023-03-25T06:22:03;93413.28;;;7.35;100.00
24610;BME280;12758;47.890;11.694;2023-03-25T06:24:29;93414.88;;;7.28;100.00
24610;BME280;12758;47.890;11.694;2023-03-25T06:26:55;93426.31;;;7.16;100.00
24610;BME280;12758;47.890;11.694;2023-03-25T06:29:22;93431.06;;;7.36;100.00
24610;BME280;12758;47.890;11.694;2023-03-25T06:31:48;93429.63;;;7.56;100.00
24610;BME280;12758;47.890;11.694;2023-03-25T06:34:14;93431.88;;;7.37;100.00
24610;BME280;12758;47.890;11.694;2023-03-25T06:36:40;93438.06;;;7.37;100.00
24610;BME280;12758;47.890;11.694;2023-03-25T06:39:06;93432.00;;;7.40;100.00
24610;BME280;12758;47.890;11.694;2023-03-25T06:41:33;93437.41;;;7.40;100.00
24610;BME280;12758;47.890;11.694;2023-03-25T06:44:00;93447.25;;;7.02;100.00
24610;BME280;12758;47.890;11.694;2023-03-25T06:46:27;93436.59;;;7.05;100.00
24610;BME280;12758;47.890;11.694;2023-03-25T06:48:53;93439.94;;;7.28;100.00
24610;BME280;12758;47.890;11.694;2023-03-25T06:51:18;93452.19;;;7.26;100.00
24610;BME280;12758;47.890;11.694;2023-03-25T06:53:47;93438.38;;;7.10;100.00
24610;BME280;12758;47.890;11.694;2023-03-25T06:56:13;93445.66;;;7.09;100.00
24610;BME280;12758;47.890;11.694;2023-03-25T06:58:39;93439.00;;;7.24;100.00
24610;BME280;12758;47.890;11.694;2023-03-25T07:01:06;93451.31;;;6.73;100.00
24610;BME280;12758;47.890;11.694;2023-03-25T07:03:33;93454.66;;;6.79;100.00
24610;BME280;12758;47.890;11.694;2023-03-25T07:06:00;93459.91;;;6.75;100.00
24610;BME280;12758;47.890;11.694;2023-03-25T07:08:27;93459.97;;;7.10;100.00
24610;BME280;12758;47.890;11.694;2023-03-25T07:10:53;93459.59;;;6.85;100.00
24610;BME280;12758;47.890;11.694;2023-03-25T07:13:19;93463.88;;;6.86;100.00
24610;BME280;12758;47.890;11.694;2023-03-25T07:15:45;93459.28;;;6.87;100.00
24610;BME280;12758;47.890;11.694;2023-03-25T07:18:11;93466.34;;;7.49;100.00
24610;BME280;12758;47.890;11.694;2023-03-25T07:20:37;93470.13;;;7.30;100.00
24610;BME280;12758;47.890;11.694;2023-03-25T07:23:03;93467.88;;;7.15;100.00
24610;BME280;12758;47.890;11.694;2023-03-25T07:25:29;93465.63;;;6.82;100.00
24610;BME280;12758;47.890;11.694;2023-03-25T07:27:55;93465.00;;;6.85;100.00
24610;BME280;12758;47.890;11.694;2023-03-25T07:30:21;93459.00;;;6.97;100.00
24610;BME280;12758;47.890;11.694;2023-03-25T07:32:47;93461.88;;;7.18;100.00
24610;BME280;12758;47.890;11.694;2023-03-25T07:35:13;93460.75;;;7.10;100.00
24610;BME280;12758;47.890;11.694;2023-03-25T07:37:40;93472.81;;;7.04;100.00
24610;BME280;12758;47.890;11.694;2023-03-25T07:40:07;93467.97;;;6.84;100.00
24610;BME280;12758;47.890;11.694;2023-03-25T07:42:34;93461.69;;;7.14;100.00
24610;BME280;12758;47.890;11.694;2023-03-25T07:45:01;93462.16;;;6.99;100.00
24610;BME280;12758;47.890;11.694;2023-03-25T07:47:27;93472.03;;;7.21;100.00
24610;BME280;12758;47.890;11.694;2023-03-25T07:49:53;93462.34;;;7.37;100.00
24610;BME280;12758;47.890;11.694;2023-03-25T07:52:19;93471.03;;;6.99;100.00
24610;BME280;12758;47.890;11.694;2023-03-25T07:54:45;93469.16;;;7.09;100.00
24610;BME280;12758;47.890;11.694;2023-03-25T07:57:11;93471.41;;;7.24;100.00
24610;BME280;12758;47.890;11.694;2023-03-25T07:59:37;93479.19;;;7.26;100.00
24610;BME280;12758;47.890;11.694;2023-03-25T08:02:03;93477.94;;;7.49;100.00
24610;BME280;12758;47.890;11.694;2023-03-25T08:04:30;93476.78;;;7.41;100.00
24610;BME280;12758;47.890;11.694;2023-03-25T08:06:56;93477.44;;;7.56;100.00
24610;BME280;12758;47.890;11.694;2023-03-25T08:09:22;93472.69;;;7.35;100.00
24610;BME280;12758;47.890;11.694;2023-03-25T08:11:49;93475.69;;;7.25;100.00
24610;BME280;12758;47.890;11.694;2023-03-25T08:14:15;93481.88;;;7.34;100.00
24610;BME280;12758;47.890;11.694;2023-03-25T08:16:41;93490.78;;;7.43;100.00
24610;BME280;12758;47.890;11.694;2023-03-25T08:19:07;93492.84;;;7.38;100.00
24610;BME280;12758;47.890;11.694;2023-03-25T08:21:33;93503.66;;;7.73;100.00
24610;BME280;12758;47.890;11.694;2023-03-25T08:23:59;93504.63;;;7.68;100.00
24610;BME280;12758;47.890;11.694;2023-03-25T08:26:29;93493.78;;;7.77;100.00
24610;BME280;12758;47.890;11.694;2023-03-25T08:28:56;93499.38;;;7.63;100.00
24610;BME280;12758;47.890;11.694;2023-03-25T08:31:22;93499.03;;;7.73;100.00
24610;BME280;12758;47.890;11.694;2023-03-25T08:33:48;93489.84;;;7.74;100.00
24610;BME280;12758;47.890;11.694;2023-03-25T08:36:14;93488.22;;;7.73;100.00
24610;BME280;12758;47.890;11.694;2023-03-25T08:38:44;93493.00;;;7.59;100.00
24610;BME280;12758;47.890;11.694;2023-03-25T08:41:10;93489.69;;;7.70;100.00
24610;BME280;12758;47.890;11.694;2023-03-25T08:43:37;93493.34;;;7.49;100.00
24610;BME280;12758;47.890;11.694;2023-03-25T08:46:04;93493.31;;;7.40;100.00
24610;BME280;12758;47.890;11.694;2023-03-25T08:48:30;93491.75;;;7.65;100.00
24610;BME280;12758;47.890;11.694;2023-03-25T08:50:56;93476.97;;;7.62;100.00
24610;BME280;12758;47.890;11.694;2023-03-25T08:53:22;93500.16;;;7.55;100.00
24610;BME280;12758;47.890;11.694;2023-03-25T08:55:50;93479.66;;;7.54;100.00
24610;BME280;12758;47.890;11.694;2023-03-25T08:58:17;93470.44;;;7.72;100.00
24610;BME280;12758;47.890;11.694;2023-03-25T09:00:43;93481.09;;;7.68;100.00
24610;BME280;12758;47.890;11.694;2023-03-25T09:03:10;93462.97;;;7.78;100.00
24610;BME280;12758;47.890;11.694;2023-03-25T09:05:36;93463.78;;;7.61;100.00
24610;BME280;12758;47.890;11.694;2023-03-25T09:08:03;93455.63;;;7.96;100.00
24610;BME280;12758;47.890;11.694;2023-03-25T09:10:29;93473.38;;;8.14;100.00
24610;BME280;12758;47.890;11.694;2023-03-25T09:12:55;93472.81;;;8.00;100.00
24610;BME280;12758;47.890;11.694;2023-03-25T09:15:21;93476.75;;;8.02;100.00
24610;BME280;12758;47.890;11.694;2023-03-25T09:17:47;93448.63;;;8.03;100.00
24610;BME280;12758;47.890;11.694;2023-03-25T09:20:14;93465.75;;;8.16;100.00
24610;BME280;12758;47.890;11.694;2023-03-25T09:22:41;93457.66;;;8.16;100.00
24610;BME280;12758;47.890;11.694;2023-03-25T09:25:07;93455.41;;;8.18;100.00
24610;BME280;12758;47.890;11.694;2023-03-25T09:27:33;93461.91;;;8.26;100.00
24610;BME280;12758;47.890;11.694;2023-03-25T09:29:59;93450.75;;;8.36;100.00
24610;BME280;12758;47.890;11.694;2023-03-25T09:32:25;93451.25;;;8.29;100.00
24610;BME280;12758;47.890;11.694;2023-03-25T09:34:51;93443.88;;;8.47;100.00
24610;BME280;12758;47.890;11.694;2023-03-25T09:37:18;93450.69;;;8.53;100.00
24610;BME280;12758;47.890;11.694;2023-03-25T09:39:44;93445.19;;;8.32;100.00
24610;BME280;12758;47.890;11.694;2023-03-25T09:42:27;93441.69;;;8.32;100.00
24610;BME280;12758;47.890;11.694;2023-03-25T09:44:56;93439.94;;;8.45;100.00
24610;BME280;12758;47.890;11.694;2023-03-25T09:47:24;93436.88;;;8.37;100.00
24610;BME280;12758;47.890;11.694;2023-03-25T09:49:53;93442.56;;;8.62;100.00
24610;BME280;12758;47.890;11.694;2023-03-25T09:52:24;93434.44;;;8.62;100.00
24610;BME280;12758;47.890;11.694;2023-03-25T09:54:53;93438.72;;;8.63;100.00
24610;BME280;12758;47.890;11.694;2023-03-25T09:57:21;93429.78;;;8.71;100.00
24610;BME280;12758;47.890;11.694;2023-03-25T09:59:49;93427.63;;;8.85;100.00
24610;BME280;12758;47.890;11.694;2023-03-25T10:02:23;93420.91;;;8.62;100.00
24610;BME280;12758;47.890;11.694;2023-03-25T10:04:58;93421.19;;;8.69;100.00
24610;BME280;12758;47.890;11.694;2023-03-25T10:07:35;93420.84;;;9.00;100.00
24610;BME280;12758;47.890;11.694;2023-03-25T10:10:07;93402.94;;;9.08;100.00
24610;BME280;12758;47.890;11.694;2023-03-25T10:12:41;93418.75;;;9.06;100.00
24610;BME280;12758;47.890;11.694;2023-03-25T10:15:15;93416.78;;;9.15;100.00
24610;BME280;12758;47.890;11.694;2023-03-25T10:17:46;93422.94;;;8.95;100.00
24610;BME280;12758;47.890;11.694;2023-03-25T10:20:20;93416.13;;;8.89;100.00
24610;BME280;12758;47.890;11.694;2023-03-25T10:22:57;93418.97;;;8.92;100.00
24610;BME280;12758;47.890;11.694;2023-03-25T10:25:28;93391.59;;;8.94;100.00
24610;BME280;12758;47.890;11.694;2023-03-25T10:27:57;93398.59;;;8.95;100.00
24610;BME280;12758;47.890;11.694;2023-03-25T10:30:25;93393.59;;;9.05;100.00
24610;BME280;12758;47.890;11.694;2023-03-25T10:32:55;93401.06;;;9.08;100.00
24610;BME280;12758;47.890;11.694;2023-03-25T10:35:23;93395.47;;;9.05;100.00
24610;BME280;12758;47.890;11.694;2023-03-25T10:37:52;93413.13;;;9.11;100.00
24610;BME280;12758;47.890;11.694;2023-03-25T10:40:21;93406.06;;;8.98;100.00
24610;BME280;12758;47.890;11.694;2023-03-25T10:42:56;93400.63;;;8.98;99.05
24610;BME280;12758;47.890;11.694;2023-03-25T10:45:23;93383.75;;;9.01;100.00
24610;BME280;12758;47.890;11.694;2023-03-25T10:47:50;93393.06;;;9.12;100.00
24610;BME280;12758;47.890;11.694;2023-03-25T10:50:19;93390.72;;;9.02;98.36
24610;BME280;12758;47.890;11.694;2023-03-25T10:52:46;93397.75;;;9.03;97.08
24610;BME280;12758;47.890;11.694;2023-03-25T10:55:20;93397.16;;;9.18;100.00
24610;BME280;12758;47.890;11.694;2023-03-25T10:57:48;93382.75;;;9.05;90.78
24610;BME280;12758;47.890;11.694;2023-03-25T11:00:16;93386.13;;;9.23;96.41
24610;BME280;12758;47.890;11.694;2023-03-25T11:02:43;93376.19;;;9.27;94.19
24610;BME280;12758;47.890;11.694;2023-03-25T11:05:09;93374.50;;;9.44;96.32
24610;BME280;12758;47.890;11.694;2023-03-25T11:07:41;93381.91;;;9.35;88.59
24610;BME280;12758;47.890;11.694;2023-03-25T11:10:13;93370.47;;;9.29;86.85
24610;BME280;12758;47.890;11.694;2023-03-25T11:12:41;93362.94;;;9.35;91.51
24610;BME280;12758;47.890;11.694;2023-03-25T11:15:13;93361.22;;;9.30;89.65
24610;BME280;12758;47.890;11.694;2023-03-25T11:17:39;93370.66;;;9.24;89.29
24610;BME280;12758;47.890;11.694;2023-03-25T11:20:06;93350.84;;;9.32;93.59
24610;BME280;12758;47.890;11.694;2023-03-25T11:22:44;93362.72;;;9.40;92.90
24610;BME280;12758;47.890;11.694;2023-03-25T11:25:17;93339.34;;;9.35;91.61
24610;BME280;12758;47.890;11.694;2023-03-25T11:27:46;93355.97;;;9.46;92.48
24610;BME280;12758;47.890;11.694;2023-03-25T11:30:15;93352.75;;;9.65;100.00
24610;BME280;12758;47.890;11.694;2023-03-25T11:32:41;93349.03;;;9.69;96.21
24610;BME280;12758;47.890;11.694;2023-03-25T11:35:14;93341.94;;;9.65;93.50
24610;BME280;12758;47.890;11.694;2023-03-25T11:37:43;93344.56;;;9.73;91.25
24610;BME280;12758;47.890;11.694;2023-03-25T11:40:13;93340.94;;;9.82;91.22
24610;BME280;12758;47.890;11.694;2023-03-25T11:42:40;93326.97;;;9.79;89.00
24610;BME280;12758;47.890;11.694;2023-03-25T11:45:18;93332.09;;;9.72;89.29
24610;BME280;12758;47.890;11.694;2023-03-25T11:47:44;93320.88;;;9.83;88.18
24610;BME280;12758;47.890;11.694;2023-03-25T11:50:18;93317.44;;;9.73;83.16
24610;BME280;12758;47.890;11.694;2023-03-25T11:52:45;93319.47;;;9.64;85.41
24610;BME280;12758;47.890;11.694;2023-03-25T11:55:15;93311.81;;;9.66;90.25
24610;BME280;12758;47.890;11.694;2023-03-25T11:57:42;93311.81;;;9.66;87.94
24610;BME280;12758;47.890;11.694;2023-03-25T12:00:21;93317.53;;;9.65;86.59
24610;BME280;12758;47.890;11.694;2023-03-25T12:02:58;93313.69;;;9.66;90.02
24610;BME280;12758;47.890;11.694;2023-03-25T12:05:24;93314.94;;;9.68;91.02
24610;BME280;12758;47.890;11.694;2023-03-25T12:07:52;93302.97;;;9.57;94.31
24610;BME280;12758;47.890;11.694;2023-03-25T12:10:31;93313.13;;;9.60;92.53
24610;BME280;12758;47.890;11.694;2023-03-25T12:13:01;93302.53;;;9.67;93.32
24610;BME280;12758;47.890;11.694;2023-03-25T12:15:35;93313.38;;;9.67;92.03
24610;BME280;12758;47.890;11.694;2023-03-25T12:18:11;93304.78;;;9.65;92.25
24610;BME280;12758;47.890;11.694;2023-03-25T12:20:48;93310.31;;;9.69;94.34
24610;BME280;12758;47.890;11.694;2023-03-25T12:23:20;93297.22;;;9.71;88.86
24610;BME280;12758;47.890;11.694;2023-03-25T12:25:54;93297.22;;;9.71;90.39
24610;BME280;12758;47.890;11.694;2023-03-25T12:31:24;93305.28;;;9.79;88.49
24610;BME280;12758;47.890;11.694;2023-03-25T12:34:01;93300.97;;;9.78;89.92
24610;BME280;12758;47.890;11.694;2023-03-25T12:36:38;93304.13;;;9.80;94.87
24610;BME280;12758;47.890;11.694;2023-03-25T12:39:14;93308.22;;;9.87;95.18
24610;BME280;12758;47.890;11.694;2023-03-25T12:41:48;93325.38;;;9.91;96.32
24610;BME280;12758;47.890;11.694;2023-03-25T12:44:27;93312.47;;;9.75;93.61
24610;BME280;12758;47.890;11.694;2023-03-25T12:47:13;93333.47;;;9.78;95.08
24610;BME280;12758;47.890;11.694;2023-03-25T12:49:58;93331.69;;;9.70;96.42
24610;BME280;12758;47.890;11.694;2023-03-25T12:52:31;93334.31;;;9.46;96.73
24610;BME280;12758;47.890;11.694;2023-03-25T12:55:06;93355.59;;;9.14;96.38
24610;BME280;12758;47.890;11.694;2023-03-25T12:57:46;93333.69;;;9.07;100.00
24610;BME280;12758;47.890;11.694;2023-03-25T13:00:21;93350.75;;;8.86;100.00
24610;BME280;12758;47.890;11.694;2023-03-25T13:03:04;93347.16;;;8.74;100.00
24610;BME280;12758;47.890;11.694;2023-03-25T13:05:38;93348.25;;;8.73;100.00
24610;BME280;12758;47.890;11.694;2023-03-25T13:08:08;93362.41;;;8.78;100.00
24610;BME280;12758;47.890;11.694;2023-03-25T13:10:37;93368.63;;;8.11;100.00